Aeroporto :
LOGIN :

Iscrizione | Disclaimer

   EN    FR    IT 

 










Sommario :    VFR   VFR Marginale   IFR   IFR Intensivo   IFR Molto Intensivo
Visibilità : 
Base nubi : 
>= 8 km
>= 3000ft
5 / 8 km
1000 / 3000 ft
1500m / 5 km
500 / 1000 ft
800 / 1500m
200 / 500 ft
< 800m
< 200 ft
Simboli :   Temporali  Nebbia  Neve Forte  Precipitazioni Forti  Vento > 20 kt
SIGMETs :   Varie  Temporali  Ghiacco  Turbolenza  Onda orograficha  Ceneri Vulcaniche






- Altitudine del aeroporto : 26 ft
- Codice IATA : SYY


EGPO - Stornoway

ULTIMO METAR :
  • 090020Z AUTO VRB01KT 9999 NCD M00/M02 Q1027

METARs OBSOLETI :
  • 082350Z AUTO 32001KT 9999 NCD M00/M02 Q1027
  • 082320Z AUTO 00000KT 9999 NCD 01/M02 Q1027
  • 082250Z AUTO 00000KT 9999 NCD 01/M02 Q1027
  • 082220Z AUTO 00000KT 9999 NCD 01/M01 Q1027
  • 082150Z AUTO 00000KT 9999 NCD 01/M01 Q1027

TAF TAF EGPO
Valido dal 09 a 00 ore il 09 a 09 ore UTC


082300Z 0900/0909 VRB03KT 9999 SCT020
BECMG 0906/0909 10010KT
ATIS : +44 1851 707 444



MetMap, La meteo Aeronautica in un colpo d'occhio ! - Copyright ORBIFLY Dicembre 2007 - Disclaimer

ORBIFLY MET'MAP TEAM :

Programmazione e sviluppo : Alexandra Zaïnal
Concezione : Baudouin d'Aumeries
Aiuto per la programmazione : Marc-Olivier Méhu
Supporto tecnico e logistico : Manuel Goepfert
Aiuto per la traduzione : Arnaldo La Scala

Contatto : metmap@orbifly.com




FONTI E CREDITI :

   NOAA